createdAt,value
2022-11-07T00:01:21.929Z,99.90
2022-11-07T00:03:49.018Z,99.90
2022-11-07T00:06:15.860Z,99.90
2022-11-07T00:08:42.495Z,1.00
2022-11-07T00:11:09.295Z,1.00
2022-11-07T00:13:35.972Z,1.00
2022-11-07T00:16:06.423Z,1.00
2022-11-07T00:18:33.472Z,1.00
2022-11-07T00:21:04.676Z,1.00
2022-11-07T00:23:31.342Z,1.00
2022-11-07T00:26:09.670Z,1.00
2022-11-07T00:28:37.585Z,1.00
2022-11-07T00:31:05.574Z,1.00
2022-11-07T00:33:32.542Z,1.00
2022-11-07T00:35:59.268Z,1.00
2022-11-07T00:38:26.073Z,1.00
2022-11-07T00:41:04.196Z,1.00
2022-11-07T00:43:31.585Z,1.00
2022-11-07T00:46:01.319Z,1.00
2022-11-07T00:48:28.379Z,1.00
2022-11-07T00:50:55.248Z,1.00
2022-11-07T00:53:22.323Z,1.00
2022-11-07T00:55:48.960Z,1.00
2022-11-07T00:58:17.107Z,1.00
2022-11-07T01:00:43.759Z,1.00
2022-11-07T01:03:29.293Z,1.00
2022-11-07T01:06:01.106Z,1.00
2022-11-07T01:08:31.772Z,1.00
2022-11-07T01:10:59.450Z,1.00
2022-11-07T01:13:26.709Z,1.00
2022-11-07T01:15:53.593Z,1.00
2022-11-07T01:18:20.816Z,1.00
2022-11-07T01:20:49.172Z,1.00
2022-11-07T01:23:16.782Z,1.00
2022-11-07T01:25:43.728Z,1.00
2022-11-07T01:28:11.416Z,1.00
2022-11-07T01:30:39.136Z,1.00
2022-11-07T01:33:08.105Z,1.00
2022-11-07T01:35:36.195Z,1.00
2022-11-07T01:38:03.383Z,99.90
2022-11-07T01:40:30.365Z,1.00
2022-11-07T01:42:57.151Z,99.90
2022-11-07T01:45:29.536Z,1.00
2022-11-07T01:47:59.677Z,1.00
2022-11-07T01:50:27.655Z,99.90
2022-11-07T01:52:58.038Z,1.00
2022-11-07T01:55:29.364Z,99.90
2022-11-07T01:58:03.058Z,1.00
2022-11-07T02:00:31.343Z,99.90
2022-11-07T02:03:13.681Z,99.90
2022-11-07T02:05:46.602Z,99.90
2022-11-07T02:08:17.761Z,1.00
2022-11-07T02:10:44.725Z,99.90
2022-11-07T02:13:17.700Z,1.00
2022-11-07T02:15:44.409Z,99.90
2022-11-07T02:18:11.518Z,87.10
2022-11-07T02:20:38.170Z,1.00
2022-11-07T02:23:09.396Z,1.00
2022-11-07T02:25:39.435Z,99.90
2022-11-07T02:28:09.582Z,57.00
2022-11-07T02:30:39.302Z,99.90
2022-11-07T02:33:18.402Z,94.20
2022-11-07T02:35:47.808Z,1.00
2022-11-07T02:38:17.584Z,1.00
2022-11-07T02:40:47.686Z,99.90
2022-11-07T02:43:19.633Z,1.00
2022-11-07T02:45:47.900Z,99.90
2022-11-07T02:48:14.719Z,99.90
2022-11-07T02:50:42.455Z,46.20
2022-11-07T02:53:09.304Z,99.90
2022-11-07T02:55:39.076Z,1.00
2022-11-07T02:58:05.820Z,1.00
2022-11-07T03:00:32.524Z,1.00
2022-11-07T03:02:59.294Z,1.00
2022-11-07T03:05:26.233Z,1.00
2022-11-07T03:07:52.989Z,1.00
2022-11-07T03:10:19.867Z,1.00
2022-11-07T03:12:49.249Z,99.90
2022-11-07T03:15:16.102Z,1.00
2022-11-07T03:17:43.141Z,1.00
2022-11-07T03:20:10.425Z,1.00
2022-11-07T03:22:40.327Z,5.30
2022-11-07T03:25:08.122Z,99.90
2022-11-07T03:27:34.809Z,99.90
2022-11-07T03:30:01.540Z,99.90
2022-11-07T03:32:28.372Z,1.00
2022-11-07T03:34:54.996Z,1.00
2022-11-07T03:37:21.640Z,1.00
2022-11-07T03:39:48.411Z,1.00
2022-11-07T03:42:17.131Z,1.00
2022-11-07T03:44:43.754Z,1.00
2022-11-07T03:47:10.409Z,1.00
2022-11-07T03:49:39.968Z,1.00
2022-11-07T03:52:06.606Z,1.00
2022-11-07T03:54:35.739Z,1.00
2022-11-07T03:57:02.436Z,1.00
2022-11-07T03:59:29.157Z,1.00
2022-11-07T04:01:55.928Z,1.00
2022-11-07T04:04:22.666Z,1.00
2022-11-07T04:06:49.316Z,1.00
2022-11-07T04:09:16.350Z,1.00
2022-11-07T04:12:01.613Z,1.00
2022-11-07T04:14:47.132Z,1.00
2022-11-07T04:17:20.181Z,1.00
2022-11-07T04:19:52.530Z,1.00
2022-11-07T04:22:19.282Z,1.00
2022-11-07T04:24:46.525Z,1.00
2022-11-07T04:27:33.186Z,1.00
2022-11-07T04:30:25.589Z,1.00
2022-11-07T04:32:56.974Z,1.00
2022-11-07T04:35:44.128Z,1.00
2022-11-07T04:38:10.932Z,1.00
2022-11-07T04:40:37.577Z,1.00
2022-11-07T04:43:09.013Z,1.00
2022-11-07T04:45:39.206Z,99.90
2022-11-07T04:48:06.404Z,99.90
2022-11-07T04:50:34.161Z,99.90
2022-11-07T04:53:00.849Z,99.90
2022-11-07T04:55:30.624Z,99.90
2022-11-07T04:57:58.126Z,99.90
2022-11-07T05:00:25.613Z,99.90
2022-11-07T05:02:52.490Z,99.90
2022-11-07T05:05:19.526Z,99.90
2022-11-07T05:07:46.756Z,64.00
2022-11-07T05:10:27.516Z,22.80
2022-11-07T05:12:55.072Z,38.60
2022-11-07T05:15:22.042Z,99.90
2022-11-07T05:17:49.077Z,99.90
2022-11-07T05:20:35.655Z,1.00
2022-11-07T05:23:12.564Z,59.80
2022-11-07T05:25:52.683Z,99.90
2022-11-07T05:28:29.963Z,1.00
2022-11-07T05:31:02.930Z,99.90
2022-11-07T05:33:29.730Z,90.90
2022-11-07T05:36:08.328Z,70.60
2022-11-07T05:38:34.973Z,93.90
2022-11-07T05:41:04.807Z,90.70
2022-11-07T05:43:31.491Z,53.90
2022-11-07T05:46:02.058Z,14.10
2022-11-07T05:48:28.843Z,99.90
2022-11-07T05:50:55.493Z,1.00
2022-11-07T05:53:24.932Z,1.00
2022-11-07T05:55:53.105Z,99.90
2022-11-07T05:58:20.634Z,67.00
2022-11-07T06:00:48.099Z,1.00
2022-11-07T06:03:15.427Z,1.00
2022-11-07T06:05:43.513Z,1.00
2022-11-07T06:08:11.789Z,1.00
2022-11-07T06:10:39.601Z,1.00
2022-11-07T06:13:10.137Z,30.80
2022-11-07T06:15:37.659Z,1.00
2022-11-07T06:18:06.636Z,99.90
2022-11-07T06:20:36.750Z,99.90
2022-11-07T06:23:07.911Z,99.90
2022-11-07T06:25:35.712Z,99.90
2022-11-07T06:28:06.900Z,99.90
2022-11-07T06:30:34.257Z,99.90
2022-11-07T06:33:07.032Z,99.90
2022-11-07T06:35:34.056Z,99.90
2022-11-07T06:38:06.235Z,99.90
2022-11-07T06:40:35.928Z,99.90
2022-11-07T06:43:10.954Z,99.90
2022-11-07T06:45:37.945Z,1.00
2022-11-07T06:48:05.081Z,1.00
2022-11-07T06:50:32.218Z,99.90
2022-11-07T06:53:03.282Z,1.00
2022-11-07T06:55:30.039Z,99.90
2022-11-07T06:58:00.942Z,99.90
2022-11-07T07:00:32.863Z,1.00
2022-11-07T07:02:59.799Z,99.90
2022-11-07T07:05:27.019Z,81.00
2022-11-07T07:07:58.077Z,1.00
2022-11-07T07:10:25.489Z,1.00
2022-11-07T07:12:53.537Z,1.00
2022-11-07T07:15:20.425Z,1.00
2022-11-07T07:17:47.318Z,99.90
2022-11-07T07:20:14.033Z,99.90
2022-11-07T07:22:40.806Z,99.90
2022-11-07T07:25:09.332Z,99.90
2022-11-07T07:27:35.930Z,99.90
2022-11-07T07:30:02.913Z,99.90
2022-11-07T07:32:29.573Z,99.20
2022-11-07T07:34:56.222Z,62.80
2022-11-07T07:37:22.878Z,33.30
2022-11-07T07:39:49.477Z,7.80
2022-11-07T07:42:16.081Z,1.00
2022-11-07T07:44:42.686Z,1.00
2022-11-07T07:47:11.498Z,1.00
2022-11-07T07:49:38.606Z,1.00
2022-11-07T07:52:05.580Z,1.00
2022-11-07T07:54:32.260Z,1.00
2022-11-07T07:56:58.998Z,1.00
2022-11-07T07:59:25.717Z,1.00
2022-11-07T08:02:45.543Z,1.00
2022-11-07T08:05:13.806Z,1.00
2022-11-07T08:07:50.554Z,1.00
2022-11-07T08:13:05.402Z,1.00
2022-11-07T08:15:32.258Z,1.00
2022-11-07T08:18:03.844Z,1.00
2022-11-07T08:20:30.511Z,1.00
2022-11-07T08:23:04.969Z,1.00
2022-11-07T08:25:31.957Z,1.00
2022-11-07T08:27:58.845Z,1.00
2022-11-07T08:30:26.983Z,1.00
2022-11-07T08:32:53.784Z,1.00
2022-11-07T08:35:21.443Z,1.00
2022-11-07T08:37:53.716Z,1.00
2022-11-07T08:40:23.707Z,1.00
2022-11-07T08:42:50.495Z,1.00
2022-11-07T08:45:17.993Z,1.00
2022-11-07T08:47:44.666Z,1.00
2022-11-07T08:50:11.374Z,1.00
2022-11-07T08:52:38.342Z,1.00
2022-11-07T08:55:05.427Z,1.00
2022-11-07T08:57:32.128Z,1.00
2022-11-07T08:59:58.755Z,1.00
2022-11-07T09:03:08.480Z,1.00
2022-11-07T09:05:12.151Z,99.90
2022-11-07T09:07:39.740Z,99.90
2022-11-07T09:10:06.866Z,99.90
2022-11-07T09:12:33.566Z,99.90
2022-11-07T09:15:00.203Z,99.90
2022-11-07T09:17:27.773Z,99.90
2022-11-07T09:19:54.374Z,99.90
2022-11-07T09:22:23.078Z,99.90
2022-11-07T09:24:49.998Z,99.90
2022-11-07T09:27:22.592Z,99.90
2022-11-07T09:29:49.209Z,99.90
2022-11-07T09:32:42.723Z,99.90
2022-11-07T09:35:05.016Z,99.90
2022-11-07T09:37:31.888Z,99.90
2022-11-07T09:39:58.572Z,99.90
2022-11-07T09:42:43.912Z,99.90
2022-11-07T09:45:13.255Z,99.90
2022-11-07T09:47:56.442Z,99.90
2022-11-07T09:50:34.546Z,99.90
2022-11-07T09:53:16.021Z,99.90
2022-11-07T09:55:54.667Z,99.90
2022-11-07T09:58:28.574Z,99.90
2022-11-07T10:00:59.751Z,99.90
2022-11-07T10:03:29.469Z,99.90
2022-11-07T10:06:16.730Z,99.90
2022-11-07T10:09:06.109Z,99.90
2022-11-07T10:12:10.169Z,99.90
2022-11-07T10:14:55.535Z,99.90
2022-11-07T10:17:51.090Z,99.90
2022-11-07T10:20:24.977Z,99.90
2022-11-07T10:22:54.956Z,99.90
2022-11-07T10:25:35.805Z,99.90
2022-11-07T10:28:15.989Z,99.90
2022-11-07T10:30:48.164Z,99.90
2022-11-07T10:33:36.447Z,99.90
2022-11-07T10:36:31.016Z,99.90
2022-11-07T10:38:58.315Z,99.90
2022-11-07T10:41:30.798Z,99.90
2022-11-07T10:44:13.915Z,99.90
2022-11-07T10:46:42.821Z,99.90
2022-11-07T10:49:30.560Z,99.90
2022-11-07T10:52:16.716Z,99.90
2022-11-07T10:54:44.942Z,99.90
2022-11-07T10:57:23.025Z,99.90
2022-11-07T10:59:52.687Z,99.90
2022-11-07T11:02:42.496Z,99.90
2022-11-07T11:05:27.432Z,99.90
2022-11-07T11:08:07.060Z,99.90
2022-11-07T11:10:39.257Z,99.90
2022-11-07T11:13:06.813Z,99.90
2022-11-07T11:15:45.700Z,99.90
2022-11-07T11:18:18.543Z,99.90
2022-11-07T11:21:05.845Z,99.90
2022-11-07T11:23:37.553Z,99.90
2022-11-07T11:26:17.814Z,99.90
2022-11-07T11:28:53.741Z,99.90
2022-11-07T11:31:35.006Z,99.90
2022-11-07T11:34:48.306Z,99.90
2022-11-07T11:37:21.352Z,99.90
2022-11-07T11:39:58.754Z,99.90
2022-11-07T11:42:45.531Z,99.90
2022-11-07T11:45:30.709Z,99.90
2022-11-07T11:48:24.524Z,99.90
2022-11-07T11:51:19.546Z,99.90
2022-11-07T11:53:46.300Z,99.90
2022-11-07T11:56:55.435Z,99.90
2022-11-07T11:59:43.192Z,99.90
2022-11-07T12:02:34.017Z,99.90
2022-11-07T12:05:19.667Z,99.90
2022-11-07T12:08:23.937Z,99.90
2022-11-07T12:10:50.503Z,99.90
2022-11-07T12:13:32.312Z,99.90
2022-11-07T12:16:23.878Z,99.90
2022-11-07T12:19:32.024Z,99.90
2022-11-07T12:22:11.557Z,99.90
2022-11-07T12:24:50.136Z,99.90
2022-11-07T12:28:08.919Z,99.90
2022-11-07T12:30:56.365Z,99.90
2022-11-07T12:33:45.295Z,99.90
2022-11-07T12:36:21.344Z,99.90
2022-11-07T12:39:06.734Z,99.90
2022-11-07T12:41:33.368Z,99.90
2022-11-07T12:44:19.681Z,99.90
2022-11-07T12:46:53.851Z,99.90
2022-11-07T12:49:39.294Z,99.90
2022-11-07T12:52:45.324Z,99.90
2022-11-07T12:55:34.449Z,99.90
2022-11-07T12:58:02.130Z,99.90
2022-11-07T13:00:30.571Z,99.90
2022-11-07T13:03:39.596Z,99.90
2022-11-07T13:06:15.301Z,99.90
2022-11-07T13:08:53.163Z,99.90
2022-11-07T13:11:28.815Z,99.90
2022-11-07T13:14:12.705Z,99.90
2022-11-07T13:16:53.698Z,99.90
2022-11-07T13:19:32.704Z,99.90
2022-11-07T13:22:13.406Z,99.90
2022-11-07T13:25:10.464Z,99.90
2022-11-07T13:27:41.688Z,99.90
2022-11-07T13:30:17.319Z,99.90
2022-11-07T13:32:51.569Z,99.90
2022-11-07T13:35:28.376Z,99.90
2022-11-07T13:38:11.525Z,99.90
2022-11-07T13:40:39.602Z,99.90
2022-11-07T13:43:18.306Z,99.90
2022-11-07T13:45:52.640Z,99.90
2022-11-07T13:48:22.922Z,99.90
2022-11-07T13:51:02.975Z,99.90
2022-11-07T13:54:18.888Z,99.90
2022-11-07T13:56:54.939Z,99.90
2022-11-07T13:59:37.936Z,99.90
2022-11-07T14:02:05.053Z,99.90
2022-11-07T14:04:39.890Z,99.90
2022-11-07T14:07:11.746Z,99.90
2022-11-07T14:09:39.338Z,99.90
2022-11-07T14:12:06.125Z,99.90
2022-11-07T14:14:32.792Z,99.90
2022-11-07T14:17:01.028Z,99.90
2022-11-07T14:19:32.451Z,99.90
2022-11-07T14:22:00.261Z,99.90
2022-11-07T14:24:32.533Z,99.90
2022-11-07T14:27:12.595Z,99.90
2022-11-07T14:30:15.518Z,99.90
2022-11-07T14:33:00.299Z,99.90
2022-11-07T14:35:32.296Z,99.90
2022-11-07T14:38:08.026Z,99.90
2022-11-07T14:40:36.188Z,99.90
2022-11-07T14:43:15.517Z,99.90
2022-11-07T14:46:11.221Z,99.90
2022-11-07T14:48:30.941Z,99.90
2022-11-07T14:51:02.381Z,99.90
2022-11-07T14:53:38.767Z,99.90
2022-11-07T14:56:09.588Z,99.90
2022-11-07T14:58:36.523Z,99.90
2022-11-07T15:01:06.037Z,99.90
2022-11-07T15:03:35.275Z,99.90
2022-11-07T15:06:02.475Z,99.90
2022-11-07T15:08:35.097Z,99.90
2022-11-07T15:11:14.170Z,99.90
2022-11-07T15:13:41.807Z,99.90
2022-11-07T15:16:16.863Z,99.90
2022-11-07T15:18:45.925Z,99.90
2022-11-07T15:21:31.689Z,99.90
2022-11-07T15:24:00.292Z,99.90
2022-11-07T15:26:35.073Z,99.90
2022-11-07T15:29:22.007Z,99.90
2022-11-07T15:31:49.581Z,99.90
2022-11-07T15:34:25.300Z,99.90
2022-11-07T15:37:00.529Z,99.90
2022-11-07T15:39:27.389Z,99.90
2022-11-07T15:41:54.015Z,99.90
2022-11-07T15:44:20.664Z,99.90
2022-11-07T15:46:50.320Z,99.90
2022-11-07T15:49:16.982Z,99.90
2022-11-07T15:51:49.981Z,99.90
2022-11-07T15:54:18.657Z,99.90
2022-11-07T15:56:46.597Z,99.90
2022-11-07T15:59:21.958Z,99.90
2022-11-07T16:01:49.159Z,99.90
2022-11-07T16:04:16.040Z,99.90
2022-11-07T16:06:46.152Z,99.90
2022-11-07T16:09:16.635Z,99.90
2022-11-07T16:11:44.015Z,99.90
2022-11-07T16:14:42.187Z,99.90
2022-11-07T16:17:02.481Z,99.90
2022-11-07T16:19:30.687Z,99.90
2022-11-07T16:21:57.315Z,99.90
2022-11-07T16:24:23.952Z,99.90
2022-11-07T16:26:51.801Z,99.90
2022-11-07T16:29:18.455Z,99.90
2022-11-07T16:31:45.163Z,99.90
2022-11-07T16:34:15.116Z,99.90
2022-11-07T16:36:42.101Z,1.00
2022-11-07T16:39:19.437Z,1.00
2022-11-07T16:41:46.549Z,1.00
2022-11-07T16:44:13.666Z,1.00
2022-11-07T16:46:41.440Z,1.00
2022-11-07T16:49:22.842Z,1.00
2022-11-07T16:51:49.789Z,1.00
2022-11-07T16:54:16.450Z,86.90
2022-11-07T16:56:43.468Z,99.90
2022-11-07T16:59:18.728Z,99.90
2022-11-07T17:01:45.472Z,1.00
2022-11-07T17:04:12.525Z,1.00
2022-11-07T17:06:46.176Z,1.00
2022-11-07T17:09:16.711Z,1.00
2022-11-07T17:11:44.333Z,99.90
2022-11-07T17:14:11.047Z,99.90
2022-11-07T17:16:37.851Z,99.90
2022-11-07T17:19:05.746Z,99.90
2022-11-07T17:21:36.329Z,1.00
2022-11-07T17:24:07.261Z,99.90
2022-11-07T17:26:37.594Z,99.90
2022-11-07T17:29:06.632Z,1.00
2022-11-07T17:31:33.475Z,21.20
2022-11-07T17:34:00.183Z,99.90
2022-11-07T17:36:36.557Z,99.90
2022-11-07T17:39:10.714Z,99.90
2022-11-07T17:41:38.723Z,99.90
2022-11-07T17:44:05.451Z,99.90
2022-11-07T17:46:34.295Z,99.90
2022-11-07T17:49:03.926Z,99.90
2022-11-07T17:51:30.655Z,55.30
2022-11-07T17:53:58.169Z,1.00
2022-11-07T17:56:27.953Z,1.00
2022-11-07T17:59:04.873Z,99.90
2022-11-07T18:01:37.252Z,99.90
2022-11-07T18:04:08.199Z,21.00
2022-11-07T18:06:39.068Z,99.90
2022-11-07T18:09:07.381Z,99.90
2022-11-07T18:11:35.100Z,1.00
2022-11-07T18:14:02.253Z,1.00
2022-11-07T18:16:34.486Z,29.60
2022-11-07T18:19:02.550Z,1.00
2022-11-07T18:21:29.432Z,32.70
2022-11-07T18:23:56.680Z,1.00
2022-11-07T18:26:27.183Z,1.00
2022-11-07T18:28:53.990Z,99.90
2022-11-07T18:31:22.665Z,1.00
2022-11-07T18:33:54.637Z,66.90
2022-11-07T18:36:21.483Z,99.90
2022-11-07T18:38:48.565Z,1.00
2022-11-07T18:41:20.238Z,99.90
2022-11-07T18:43:47.105Z,99.90
2022-11-07T18:46:15.768Z,1.00
2022-11-07T18:48:42.895Z,1.00
2022-11-07T18:51:12.257Z,1.00
2022-11-07T18:53:39.156Z,99.90
2022-11-07T18:56:07.161Z,99.90
2022-11-07T18:58:36.425Z,30.00
2022-11-07T19:01:09.271Z,99.90
2022-11-07T19:03:36.848Z,1.00
2022-11-07T19:06:08.356Z,1.00
2022-11-07T19:08:37.579Z,1.00
2022-11-07T19:11:07.765Z,99.90
2022-11-07T19:13:40.250Z,99.90
2022-11-07T19:16:09.528Z,1.00
2022-11-07T19:18:37.103Z,1.00
2022-11-07T19:21:04.725Z,99.90
2022-11-07T19:23:34.855Z,1.00
2022-11-07T19:26:01.805Z,1.00
2022-11-07T19:28:36.247Z,1.00
2022-11-07T19:31:08.305Z,1.00
2022-11-07T19:33:37.271Z,99.90
2022-11-07T19:36:07.336Z,99.90
2022-11-07T19:38:34.661Z,99.90
2022-11-07T19:41:09.229Z,1.00
2022-11-07T19:43:36.540Z,1.00
2022-11-07T19:46:08.410Z,1.00
2022-11-07T19:48:38.418Z,1.00
2022-11-07T19:51:07.187Z,1.00
2022-11-07T19:53:34.195Z,99.90
2022-11-07T19:56:13.135Z,99.90
2022-11-07T19:58:41.089Z,99.90
2022-11-07T20:01:13.417Z,99.90
2022-11-07T20:03:43.790Z,99.90
2022-11-07T20:06:13.307Z,99.90
2022-11-07T20:08:40.515Z,99.90
2022-11-07T20:11:07.571Z,99.90
2022-11-07T20:13:42.955Z,99.90
2022-11-07T20:16:10.059Z,99.90
2022-11-07T20:18:37.966Z,99.90
2022-11-07T20:21:12.774Z,1.00
2022-11-07T20:23:40.364Z,1.00
2022-11-07T20:26:09.263Z,1.00
2022-11-07T20:28:36.185Z,1.00
2022-11-07T20:31:30.394Z,1.00
2022-11-07T20:34:02.435Z,1.00
2022-11-07T20:36:31.096Z,1.00
2022-11-07T20:39:04.065Z,1.00
2022-11-07T20:41:31.048Z,1.00
2022-11-07T20:44:02.625Z,1.00
2022-11-07T20:46:30.972Z,1.00
2022-11-07T20:49:02.363Z,1.00
2022-11-07T20:51:29.956Z,1.00
2022-11-07T20:53:56.726Z,1.00
2022-11-07T20:56:25.084Z,1.00
2022-11-07T20:58:52.098Z,1.00
2022-11-07T21:01:23.190Z,1.00
2022-11-07T21:03:57.669Z,1.00
2022-11-07T21:06:24.383Z,1.00
2022-11-07T21:09:00.124Z,1.00
2022-11-07T21:11:28.837Z,1.00
2022-11-07T21:13:55.537Z,1.00
2022-11-07T21:16:23.542Z,1.00
2022-11-07T21:18:51.732Z,1.00
2022-11-07T21:21:27.506Z,1.00
2022-11-07T21:23:56.454Z,1.00
2022-11-07T21:26:33.369Z,1.00
2022-11-07T21:29:01.445Z,1.00
2022-11-07T21:31:30.529Z,1.00
2022-11-07T21:34:00.575Z,1.00
2022-11-07T21:36:30.755Z,1.00
2022-11-07T21:38:58.534Z,1.00
2022-11-07T21:41:25.612Z,1.00
2022-11-07T21:43:52.456Z,1.00
2022-11-07T21:46:22.453Z,7.50
2022-11-07T21:48:49.697Z,17.90
2022-11-07T21:51:21.925Z,24.70
2022-11-07T21:53:49.579Z,26.50
2022-11-07T21:56:24.504Z,30.80
2022-11-07T21:58:53.357Z,35.90
2022-11-07T22:01:24.131Z,33.20
2022-11-07T22:04:10.143Z,30.00
2022-11-07T22:06:45.031Z,32.20
2022-11-07T22:09:17.196Z,57.10
2022-11-07T22:11:46.232Z,72.20
2022-11-07T22:14:15.264Z,82.80
2022-11-07T22:16:42.340Z,90.60
2022-11-07T22:19:12.454Z,76.40
2022-11-07T22:21:45.917Z,71.30
2022-11-07T22:24:12.605Z,90.00
2022-11-07T22:26:39.355Z,93.90
2022-11-07T22:29:08.418Z,95.20
2022-11-07T22:31:36.248Z,95.60
2022-11-07T22:34:03.433Z,96.00
2022-11-07T22:36:33.297Z,98.50
2022-11-07T22:39:00.045Z,99.90
2022-11-07T22:41:29.041Z,99.90
2022-11-07T22:43:57.140Z,99.90
2022-11-07T22:46:29.091Z,96.30
2022-11-07T22:48:56.315Z,99.90
2022-11-07T22:51:25.702Z,98.70
2022-11-07T22:54:00.563Z,96.50
2022-11-07T22:56:27.199Z,97.70
2022-11-07T22:58:54.326Z,99.50
2022-11-07T23:01:27.598Z,98.60
2022-11-07T23:03:55.474Z,99.90
2022-11-07T23:06:23.485Z,99.90
2022-11-07T23:08:51.038Z,99.90
2022-11-07T23:14:11.246Z,99.90
2022-11-07T23:16:44.770Z,99.90
2022-11-07T23:19:14.036Z,99.90
2022-11-07T23:21:41.212Z,99.90
2022-11-07T23:24:08.416Z,99.90
2022-11-07T23:26:35.708Z,99.90
2022-11-07T23:29:10.459Z,99.90
2022-11-07T23:31:39.443Z,99.90
2022-11-07T23:34:06.574Z,99.90
2022-11-07T23:36:33.230Z,99.90
2022-11-07T23:39:07.428Z,99.90
2022-11-07T23:41:34.624Z,99.90
2022-11-07T23:44:01.649Z,99.90
2022-11-07T23:46:46.909Z,99.90
2022-11-07T23:49:32.261Z,99.90
2022-11-07T23:51:58.907Z,99.90
2022-11-07T23:54:44.158Z,99.90
2022-11-07T23:57:10.858Z,99.90
2022-11-07T23:59:55.999Z,99.90
